sensor_id;sensor_type;location;lat;lon;timestamp;P1;durP1;ratioP1;P2;durP2;ratioP2
53505;SDS011;39388;50.936;6.848;2023-04-03T00:02:22;3.45;;;3.15;;
53505;SDS011;39388;50.936;6.848;2023-04-03T00:04:53;4.43;;;3.53;;
53505;SDS011;39388;50.936;6.848;2023-04-03T00:07:23;4.60;;;3.45;;
53505;SDS011;39388;50.936;6.848;2023-04-03T00:09:53;4.68;;;3.75;;
53505;SDS011;39388;50.936;6.848;2023-04-03T00:12:24;4.22;;;3.60;;
53505;SDS011;39388;50.936;6.848;2023-04-03T00:14:54;4.10;;;3.70;;
53505;SDS011;39388;50.936;6.848;2023-04-03T00:17:24;4.70;;;4.10;;
53505;SDS011;39388;50.936;6.848;2023-04-03T00:19:55;4.53;;;4.13;;
53505;SDS011;39388;50.936;6.848;2023-04-03T00:22:25;4.63;;;4.22;;
53505;SDS011;39388;50.936;6.848;2023-04-03T00:27:28;5.20;;;4.70;;
53505;SDS011;39388;50.936;6.848;2023-04-03T00:29:59;4.78;;;4.38;;
53505;SDS011;39388;50.936;6.848;2023-04-03T00:32:29;6.63;;;4.85;;
53505;SDS011;39388;50.936;6.848;2023-04-03T00:35:00;5.43;;;4.88;;
53505;SDS011;39388;50.936;6.848;2023-04-03T00:37:30;5.97;;;5.35;;
53505;SDS011;39388;50.936;6.848;2023-04-03T00:40:01;4.95;;;4.45;;
53505;SDS011;39388;50.936;6.848;2023-04-03T00:42:32;8.95;;;5.18;;
53505;SDS011;39388;50.936;6.848;2023-04-03T00:47:32;5.32;;;4.82;;
53505;SDS011;39388;50.936;6.848;2023-04-03T00:50:03;6.35;;;4.93;;
53505;SDS011;39388;50.936;6.848;2023-04-03T00:52:34;5.82;;;5.30;;
53505;SDS011;39388;50.936;6.848;2023-04-03T00:55:05;5.88;;;5.10;;
53505;SDS011;39388;50.936;6.848;2023-04-03T00:57:38;6.70;;;5.53;;
53505;SDS011;39388;50.936;6.848;2023-04-03T01:00:11;7.88;;;5.75;;
53505;SDS011;39388;50.936;6.848;2023-04-03T01:02:44;6.20;;;5.60;;
53505;SDS011;39388;50.936;6.848;2023-04-03T01:05:15;6.30;;;5.53;;
53505;SDS011;39388;50.936;6.848;2023-04-03T01:07:47;5.97;;;5.38;;
53505;SDS011;39388;50.936;6.848;2023-04-03T01:10:19;7.30;;;6.55;;
53505;SDS011;39388;50.936;6.848;2023-04-03T01:12:50;6.85;;;6.15;;
53505;SDS011;39388;50.936;6.848;2023-04-03T01:15:22;6.85;;;6.00;;
53505;SDS011;39388;50.936;6.848;2023-04-03T01:17:56;8.00;;;6.20;;
53505;SDS011;39388;50.936;6.848;2023-04-03T01:25:51;6.72;;;6.13;;
53505;SDS011;39388;50.936;6.848;2023-04-03T01:28:25;6.53;;;5.82;;
53505;SDS011;39388;50.936;6.848;2023-04-03T01:33:40;6.40;;;5.75;;
53505;SDS011;39388;50.936;6.848;2023-04-03T01:36:22;7.00;;;6.00;;
53505;SDS011;39388;50.936;6.848;2023-04-03T01:38:55;7.57;;;5.85;;
53505;SDS011;39388;50.936;6.848;2023-04-03T01:41:26;8.10;;;6.13;;
53505;SDS011;39388;50.936;6.848;2023-04-03T01:43:57;8.23;;;6.07;;
53505;SDS011;39388;50.936;6.848;2023-04-03T01:46:28;11.00;;;6.13;;
53505;SDS011;39388;50.936;6.848;2023-04-03T01:48:58;6.72;;;6.03;;
53505;SDS011;39388;50.936;6.848;2023-04-03T01:51:28;6.43;;;5.82;;
53505;SDS011;39388;50.936;6.848;2023-04-03T01:54:00;6.53;;;5.90;;
53505;SDS011;39388;50.936;6.848;2023-04-03T01:56:30;6.38;;;5.78;;
53505;SDS011;39388;50.936;6.848;2023-04-03T01:59:00;6.28;;;5.68;;
53505;SDS011;39388;50.936;6.848;2023-04-03T02:01:31;6.50;;;5.93;;
53505;SDS011;39388;50.936;6.848;2023-04-03T02:04:01;7.40;;;5.70;;
53505;SDS011;39388;50.936;6.848;2023-04-03T02:06:32;6.15;;;5.63;;
53505;SDS011;39388;50.936;6.848;2023-04-03T02:09:02;6.53;;;5.85;;
53505;SDS011;39388;50.936;6.848;2023-04-03T02:11:34;7.22;;;6.05;;
53505;SDS011;39388;50.936;6.848;2023-04-03T02:14:04;6.20;;;5.60;;
53505;SDS011;39388;50.936;6.848;2023-04-03T02:16:35;6.75;;;5.60;;
53505;SDS011;39388;50.936;6.848;2023-04-03T02:19:05;6.22;;;5.63;;
53505;SDS011;39388;50.936;6.848;2023-04-03T02:21:36;7.00;;;5.85;;
53505;SDS011;39388;50.936;6.848;2023-04-03T02:24:06;6.32;;;5.78;;
53505;SDS011;39388;50.936;6.848;2023-04-03T02:26:37;8.00;;;6.47;;
53505;SDS011;39388;50.936;6.848;2023-04-03T02:29:07;7.03;;;6.28;;
53505;SDS011;39388;50.936;6.848;2023-04-03T02:31:37;6.97;;;6.20;;
53505;SDS011;39388;50.936;6.848;2023-04-03T02:34:08;7.03;;;6.32;;
53505;SDS011;39388;50.936;6.848;2023-04-03T02:36:38;7.45;;;6.75;;
53505;SDS011;39388;50.936;6.848;2023-04-03T02:39:09;7.28;;;6.32;;
53505;SDS011;39388;50.936;6.848;2023-04-03T02:41:39;8.10;;;6.88;;
53505;SDS011;39388;50.936;6.848;2023-04-03T02:44:10;9.43;;;6.90;;
53505;SDS011;39388;50.936;6.848;2023-04-03T02:46:41;8.85;;;6.82;;
53505;SDS011;39388;50.936;6.848;2023-04-03T02:49:11;7.93;;;6.95;;
53505;SDS011;39388;50.936;6.848;2023-04-03T02:51:42;8.05;;;6.50;;
53505;SDS011;39388;50.936;6.848;2023-04-03T02:54:12;8.95;;;6.72;;
53505;SDS011;39388;50.936;6.848;2023-04-03T02:56:43;7.72;;;6.93;;
53505;SDS011;39388;50.936;6.848;2023-04-03T02:59:13;10.27;;;6.70;;
53505;SDS011;39388;50.936;6.848;2023-04-03T03:01:44;9.15;;;6.50;;
53505;SDS011;39388;50.936;6.848;2023-04-03T03:04:14;7.95;;;6.65;;
53505;SDS011;39388;50.936;6.848;2023-04-03T03:06:45;7.55;;;6.50;;
53505;SDS011;39388;50.936;6.848;2023-04-03T03:09:17;7.13;;;6.35;;
53505;SDS011;39388;50.936;6.848;2023-04-03T03:11:47;6.93;;;6.22;;
53505;SDS011;39388;50.936;6.848;2023-04-03T03:14:18;7.00;;;6.32;;
53505;SDS011;39388;50.936;6.848;2023-04-03T03:16:48;8.68;;;6.80;;
53505;SDS011;39388;50.936;6.848;2023-04-03T03:19:19;7.25;;;6.55;;
53505;SDS011;39388;50.936;6.848;2023-04-03T03:21:49;7.20;;;6.50;;
53505;SDS011;39388;50.936;6.848;2023-04-03T03:24:21;7.47;;;6.18;;
53505;SDS011;39388;50.936;6.848;2023-04-03T03:26:51;7.07;;;6.28;;
53505;SDS011;39388;50.936;6.848;2023-04-03T03:29:21;7.20;;;6.50;;
53505;SDS011;39388;50.936;6.848;2023-04-03T03:31:52;7.72;;;7.03;;
53505;SDS011;39388;50.936;6.848;2023-04-03T03:34:22;7.88;;;6.93;;
53505;SDS011;39388;50.936;6.848;2023-04-03T03:36:52;7.22;;;6.60;;
53505;SDS011;39388;50.936;6.848;2023-04-03T03:39:23;6.85;;;6.25;;
53505;SDS011;39388;50.936;6.848;2023-04-03T03:41:53;7.95;;;6.68;;
53505;SDS011;39388;50.936;6.848;2023-04-03T03:44:24;7.20;;;6.55;;
53505;SDS011;39388;50.936;6.848;2023-04-03T03:46:54;7.63;;;6.70;;
53505;SDS011;39388;50.936;6.848;2023-04-03T03:49:26;7.03;;;6.40;;
53505;SDS011;39388;50.936;6.848;2023-04-03T03:51:56;6.55;;;5.85;;
53505;SDS011;39388;50.936;6.848;2023-04-03T03:54:26;7.07;;;6.47;;
53505;SDS011;39388;50.936;6.848;2023-04-03T03:56:57;7.32;;;6.63;;
53505;SDS011;39388;50.936;6.848;2023-04-03T03:59:27;6.95;;;6.25;;
53505;SDS011;39388;50.936;6.848;2023-04-03T04:01:57;8.52;;;6.15;;
53505;SDS011;39388;50.936;6.848;2023-04-03T04:04:28;6.57;;;5.97;;
53505;SDS011;39388;50.936;6.848;2023-04-03T04:06:58;7.65;;;6.25;;
53505;SDS011;39388;50.936;6.848;2023-04-03T04:09:30;6.72;;;5.97;;
53505;SDS011;39388;50.936;6.848;2023-04-03T04:12:00;7.80;;;6.07;;
53505;SDS011;39388;50.936;6.848;2023-04-03T04:14:31;6.05;;;5.55;;
53505;SDS011;39388;50.936;6.848;2023-04-03T04:17:01;7.10;;;6.40;;
53505;SDS011;39388;50.936;6.848;2023-04-03T04:19:32;7.18;;;6.57;;
53505;SDS011;39388;50.936;6.848;2023-04-03T04:22:03;6.63;;;6.00;;
53505;SDS011;39388;50.936;6.848;2023-04-03T04:24:33;7.07;;;5.63;;
53505;SDS011;39388;50.936;6.848;2023-04-03T04:27:04;7.10;;;6.00;;
53505;SDS011;39388;50.936;6.848;2023-04-03T04:29:34;6.80;;;6.28;;
53505;SDS011;39388;50.936;6.848;2023-04-03T04:32:06;6.50;;;5.90;;
53505;SDS011;39388;50.936;6.848;2023-04-03T04:34:36;6.97;;;6.15;;
53505;SDS011;39388;50.936;6.848;2023-04-03T04:37:07;7.55;;;6.43;;
53505;SDS011;39388;50.936;6.848;2023-04-03T04:39:37;9.40;;;5.85;;
53505;SDS011;39388;50.936;6.848;2023-04-03T04:42:07;5.78;;;5.28;;
53505;SDS011;39388;50.936;6.848;2023-04-03T04:44:42;6.65;;;6.05;;
53505;SDS011;39388;50.936;6.848;2023-04-03T04:47:12;5.75;;;5.25;;
53505;SDS011;39388;50.936;6.848;2023-04-03T04:49:43;6.00;;;5.40;;
53505;SDS011;39388;50.936;6.848;2023-04-03T04:52:13;5.97;;;5.32;;
53505;SDS011;39388;50.936;6.848;2023-04-03T04:54:44;8.50;;;6.82;;
53505;SDS011;39388;50.936;6.848;2023-04-03T04:57:15;7.00;;;5.40;;
53505;SDS011;39388;50.936;6.848;2023-04-03T04:59:45;5.07;;;4.60;;
53505;SDS011;39388;50.936;6.848;2023-04-03T05:02:15;5.38;;;4.88;;
53505;SDS011;39388;50.936;6.848;2023-04-03T05:04:46;6.00;;;5.03;;
53505;SDS011;39388;50.936;6.848;2023-04-03T05:07:16;6.65;;;5.80;;
53505;SDS011;39388;50.936;6.848;2023-04-03T05:09:47;6.00;;;5.35;;
53505;SDS011;39388;50.936;6.848;2023-04-03T05:12:17;6.25;;;5.65;;
53505;SDS011;39388;50.936;6.848;2023-04-03T05:17:20;5.93;;;5.43;;
53505;SDS011;39388;50.936;6.848;2023-04-03T05:19:50;7.82;;;6.75;;
53505;SDS011;39388;50.936;6.848;2023-04-03T05:22:21;9.25;;;7.22;;
53505;SDS011;39388;50.936;6.848;2023-04-03T05:24:51;8.88;;;7.45;;
53505;SDS011;39388;50.936;6.848;2023-04-03T05:27:22;8.70;;;6.30;;
53505;SDS011;39388;50.936;6.848;2023-04-03T05:29:54;6.73;;;6.13;;
53505;SDS011;39388;50.936;6.848;2023-04-03T05:32:25;8.68;;;6.63;;
53505;SDS011;39388;50.936;6.848;2023-04-03T05:34:57;7.47;;;6.20;;
53505;SDS011;39388;50.936;6.848;2023-04-03T05:37:27;6.43;;;5.85;;
53505;SDS011;39388;50.936;6.848;2023-04-03T05:39:58;9.13;;;6.25;;
53505;SDS011;39388;50.936;6.848;2023-04-03T05:42:28;8.20;;;6.07;;
53505;SDS011;39388;50.936;6.848;2023-04-03T05:44:58;8.93;;;6.38;;
53505;SDS011;39388;50.936;6.848;2023-04-03T05:47:29;9.27;;;6.65;;
53505;SDS011;39388;50.936;6.848;2023-04-03T05:50:00;6.97;;;6.32;;
53505;SDS011;39388;50.936;6.848;2023-04-03T05:52:35;6.38;;;5.78;;
53505;SDS011;39388;50.936;6.848;2023-04-03T05:55:07;6.65;;;5.70;;
53505;SDS011;39388;50.936;6.848;2023-04-03T05:57:38;7.55;;;5.80;;
53505;SDS011;39388;50.936;6.848;2023-04-03T06:00:09;9.23;;;5.40;;
53505;SDS011;39388;50.936;6.848;2023-04-03T06:02:45;6.35;;;5.30;;
53505;SDS011;39388;50.936;6.848;2023-04-03T06:05:15;5.88;;;5.15;;
53505;SDS011;39388;50.936;6.848;2023-04-03T06:07:46;4.88;;;4.35;;
53505;SDS011;39388;50.936;6.848;2023-04-03T06:10:16;5.07;;;4.63;;
53505;SDS011;39388;50.936;6.848;2023-04-03T06:12:47;5.57;;;3.65;;
53505;SDS011;39388;50.936;6.848;2023-04-03T06:15:17;5.00;;;3.60;;
53505;SDS011;39388;50.936;6.848;2023-04-03T06:17:48;4.78;;;3.60;;
53505;SDS011;39388;50.936;6.848;2023-04-03T06:20:18;4.38;;;3.08;;
53505;SDS011;39388;50.936;6.848;2023-04-03T06:22:49;6.05;;;3.40;;
53505;SDS011;39388;50.936;6.848;2023-04-03T06:25:20;5.82;;;3.35;;
53505;SDS011;39388;50.936;6.848;2023-04-03T06:27:51;5.07;;;3.50;;
53505;SDS011;39388;50.936;6.848;2023-04-03T06:30:21;4.55;;;3.20;;
53505;SDS011;39388;50.936;6.848;2023-04-03T06:32:51;4.28;;;3.20;;
53505;SDS011;39388;50.936;6.848;2023-04-03T06:35:22;5.30;;;3.00;;
53505;SDS011;39388;50.936;6.848;2023-04-03T06:37:53;3.58;;;3.28;;
53505;SDS011;39388;50.936;6.848;2023-04-03T06:40:24;3.72;;;3.10;;
53505;SDS011;39388;50.936;6.848;2023-04-03T06:42:56;3.80;;;3.33;;
53505;SDS011;39388;50.936;6.848;2023-04-03T06:45:26;4.43;;;3.63;;
53505;SDS011;39388;50.936;6.848;2023-04-03T06:47:57;3.28;;;2.97;;
53505;SDS011;39388;50.936;6.848;2023-04-03T06:50:27;7.15;;;3.50;;
53505;SDS011;39388;50.936;6.848;2023-04-03T06:52:58;5.18;;;3.33;;
53505;SDS011;39388;50.936;6.848;2023-04-03T06:55:28;3.65;;;3.13;;
53505;SDS011;39388;50.936;6.848;2023-04-03T06:57:59;5.18;;;3.30;;
53505;SDS011;39388;50.936;6.848;2023-04-03T07:00:30;4.53;;;3.47;;
53505;SDS011;39388;50.936;6.848;2023-04-03T07:03:01;4.63;;;3.20;;
53505;SDS011;39388;50.936;6.848;2023-04-03T07:05:31;2.90;;;2.70;;
53505;SDS011;39388;50.936;6.848;2023-04-03T07:08:02;2.80;;;2.60;;
53505;SDS011;39388;50.936;6.848;2023-04-03T07:10:32;4.45;;;2.83;;
53505;SDS011;39388;50.936;6.848;2023-04-03T07:13:02;4.32;;;3.10;;
53505;SDS011;39388;50.936;6.848;2023-04-03T07:15:33;3.17;;;2.80;;
53505;SDS011;39388;50.936;6.848;2023-04-03T07:18:03;4.75;;;2.85;;
53505;SDS011;39388;50.936;6.848;2023-04-03T07:20:35;4.60;;;3.00;;
53505;SDS011;39388;50.936;6.848;2023-04-03T07:23:06;3.92;;;2.80;;
53505;SDS011;39388;50.936;6.848;2023-04-03T07:25:36;3.10;;;2.50;;
53505;SDS011;39388;50.936;6.848;2023-04-03T07:28:07;4.25;;;2.70;;
53505;SDS011;39388;50.936;6.848;2023-04-03T07:30:42;2.75;;;2.33;;
53505;SDS011;39388;50.936;6.848;2023-04-03T07:33:18;2.33;;;2.10;;
53505;SDS011;39388;50.936;6.848;2023-04-03T07:35:49;2.42;;;2.22;;
53505;SDS011;39388;50.936;6.848;2023-04-03T07:38:20;2.40;;;2.03;;
53505;SDS011;39388;50.936;6.848;2023-04-03T07:40:51;2.30;;;2.10;;
53505;SDS011;39388;50.936;6.848;2023-04-03T07:43:22;5.55;;;2.40;;
53505;SDS011;39388;50.936;6.848;2023-04-03T07:45:54;2.97;;;2.47;;
53505;SDS011;39388;50.936;6.848;2023-04-03T07:48:25;4.78;;;2.20;;
53505;SDS011;39388;50.936;6.848;2023-04-03T07:51:00;4.53;;;2.00;;
53505;SDS011;39388;50.936;6.848;2023-04-03T07:53:31;2.15;;;1.50;;
53505;SDS011;39388;50.936;6.848;2023-04-03T07:56:02;2.85;;;2.15;;
53505;SDS011;39388;50.936;6.848;2023-04-03T07:58:33;2.25;;;1.92;;
53505;SDS011;39388;50.936;6.848;2023-04-03T08:01:03;2.28;;;1.88;;
53505;SDS011;39388;50.936;6.848;2023-04-03T08:03:34;4.82;;;2.10;;
53505;SDS011;39388;50.936;6.848;2023-04-03T08:06:05;2.80;;;1.85;;
53505;SDS011;39388;50.936;6.848;2023-04-03T08:08:37;3.85;;;2.22;;
53505;SDS011;39388;50.936;6.848;2023-04-03T08:11:07;3.45;;;1.70;;
53505;SDS011;39388;50.936;6.848;2023-04-03T08:13:38;2.42;;;1.98;;
53505;SDS011;39388;50.936;6.848;2023-04-03T08:16:12;2.72;;;1.77;;
53505;SDS011;39388;50.936;6.848;2023-04-03T08:18:46;2.50;;;1.80;;
53505;SDS011;39388;50.936;6.848;2023-04-03T08:21:17;3.45;;;1.80;;
53505;SDS011;39388;50.936;6.848;2023-04-03T08:23:48;3.05;;;1.90;;
53505;SDS011;39388;50.936;6.848;2023-04-03T08:26:22;2.63;;;1.80;;
53505;SDS011;39388;50.936;6.848;2023-04-03T08:28:52;2.22;;;1.67;;
53505;SDS011;39388;50.936;6.848;2023-04-03T08:31:23;3.00;;;1.67;;
53505;SDS011;39388;50.936;6.848;2023-04-03T08:33:53;1.50;;;1.40;;
53505;SDS011;39388;50.936;6.848;2023-04-03T08:36:28;3.15;;;1.75;;
53505;SDS011;39388;50.936;6.848;2023-04-03T08:38:59;4.03;;;2.10;;
53505;SDS011;39388;50.936;6.848;2023-04-03T08:41:33;2.22;;;1.55;;
53505;SDS011;39388;50.936;6.848;2023-04-03T08:44:24;2.85;;;1.95;;
53505;SDS011;39388;50.936;6.848;2023-04-03T08:49:47;3.85;;;1.70;;
53505;SDS011;39388;50.936;6.848;2023-04-03T08:52:34;4.18;;;1.83;;
53505;SDS011;39388;50.936;6.848;2023-04-03T08:57:47;3.40;;;1.52;;
53505;SDS011;39388;50.936;6.848;2023-04-03T09:00:21;3.40;;;1.88;;
53505;SDS011;39388;50.936;6.848;2023-04-03T09:02:55;2.33;;;1.48;;
53505;SDS011;39388;50.936;6.848;2023-04-03T09:05:32;3.13;;;1.83;;
53505;SDS011;39388;50.936;6.848;2023-04-03T09:08:16;3.10;;;1.60;;
53505;SDS011;39388;50.936;6.848;2023-04-03T09:10:57;2.25;;;1.70;;
53505;SDS011;39388;50.936;6.848;2023-04-03T09:13:57;1.20;;;1.10;;
53505;SDS011;39388;50.936;6.848;2023-04-03T09:22:21;3.38;;;1.60;;
53505;SDS011;39388;50.936;6.848;2023-04-03T09:27:46;2.20;;;1.10;;
53505;SDS011;39388;50.936;6.848;2023-04-03T09:30:18;2.72;;;1.80;;
53505;SDS011;39388;50.936;6.848;2023-04-03T09:32:52;4.80;;;2.40;;
53505;SDS011;39388;50.936;6.848;2023-04-03T09:35:25;2.10;;;1.60;;
53505;SDS011;39388;50.936;6.848;2023-04-03T09:43:22;2.75;;;1.60;;
53505;SDS011;39388;50.936;6.848;2023-04-03T09:45:55;2.42;;;1.67;;
53505;SDS011;39388;50.936;6.848;2023-04-03T09:48:50;2.00;;;1.50;;
53505;SDS011;39388;50.936;6.848;2023-04-03T09:51:24;1.88;;;1.50;;
53505;SDS011;39388;50.936;6.848;2023-04-03T09:53:57;1.50;;;1.40;;
53505;SDS011;39388;50.936;6.848;2023-04-03T09:56:28;2.72;;;1.67;;
53505;SDS011;39388;50.936;6.848;2023-04-03T10:01:37;4.43;;;1.70;;
53505;SDS011;39388;50.936;6.848;2023-04-03T10:04:16;1.80;;;1.60;;
53505;SDS011;39388;50.936;6.848;2023-04-03T10:06:49;1.50;;;1.35;;
53505;SDS011;39388;50.936;6.848;2023-04-03T10:14:29;1.40;;;1.30;;
53505;SDS011;39388;50.936;6.848;2023-04-03T10:22:25;2.55;;;1.30;;
53505;SDS011;39388;50.936;6.848;2023-04-03T10:53:39;3.13;;;1.30;;
53505;SDS011;39388;50.936;6.848;2023-04-03T11:02:03;1.50;;;1.30;;
53505;SDS011;39388;50.936;6.848;2023-04-03T11:04:46;4.35;;;1.30;;
53505;SDS011;39388;50.936;6.848;2023-04-03T11:07:22;1.42;;;1.30;;
53505;SDS011;39388;50.936;6.848;2023-04-03T11:09:58;1.75;;;1.33;;
53505;SDS011;39388;50.936;6.848;2023-04-03T11:12:36;2.30;;;1.30;;
53505;SDS011;39388;50.936;6.848;2023-04-03T11:15:13;2.22;;;2.00;;
53505;SDS011;39388;50.936;6.848;2023-04-03T11:17:55;1.73;;;1.20;;
53505;SDS011;39388;50.936;6.848;2023-04-03T11:20:32;1.60;;;1.40;;
53505;SDS011;39388;50.936;6.848;2023-04-03T11:23:25;1.88;;;1.33;;
53505;SDS011;39388;50.936;6.848;2023-04-03T11:26:05;1.42;;;1.30;;
53505;SDS011;39388;50.936;6.848;2023-04-03T11:28:40;4.68;;;1.50;;
53505;SDS011;39388;50.936;6.848;2023-04-03T11:36:40;1.58;;;1.40;;
53505;SDS011;39388;50.936;6.848;2023-04-03T11:39:23;1.98;;;1.23;;
53505;SDS011;39388;50.936;6.848;2023-04-03T11:47:57;1.55;;;1.42;;
53505;SDS011;39388;50.936;6.848;2023-04-03T11:58:20;2.90;;;1.50;;
53505;SDS011;39388;50.936;6.848;2023-04-03T12:00:56;2.22;;;1.70;;
53505;SDS011;39388;50.936;6.848;2023-04-03T12:03:29;2.17;;;1.40;;
53505;SDS011;39388;50.936;6.848;2023-04-03T12:11:15;3.78;;;1.45;;
53505;SDS011;39388;50.936;6.848;2023-04-03T12:19:02;3.85;;;1.40;;
53505;SDS011;39388;50.936;6.848;2023-04-03T12:46:58;1.90;;;1.40;;
53505;SDS011;39388;50.936;6.848;2023-04-03T12:49:43;1.60;;;1.20;;
53505;SDS011;39388;50.936;6.848;2023-04-03T12:52:25;1.20;;;1.10;;
53505;SDS011;39388;50.936;6.848;2023-04-03T12:55:03;1.55;;;1.45;;
53505;SDS011;39388;50.936;6.848;2023-04-03T12:57:42;1.20;;;1.10;;
53505;SDS011;39388;50.936;6.848;2023-04-03T13:02:59;3.22;;;1.20;;
53505;SDS011;39388;50.936;6.848;2023-04-03T13:05:32;2.80;;;1.20;;
53505;SDS011;39388;50.936;6.848;2023-04-03T13:08:05;1.93;;;1.10;;
53505;SDS011;39388;50.936;6.848;2023-04-03T13:10:53;1.58;;;1.20;;
53505;SDS011;39388;50.936;6.848;2023-04-03T13:13:31;1.30;;;1.20;;
53505;SDS011;39388;50.936;6.848;2023-04-03T13:16:07;1.58;;;1.25;;
53505;SDS011;39388;50.936;6.848;2023-04-03T13:18:40;1.75;;;1.35;;
53505;SDS011;39388;50.936;6.848;2023-04-03T13:21:13;2.03;;;1.33;;
53505;SDS011;39388;50.936;6.848;2023-04-03T13:23:48;1.40;;;1.30;;
53505;SDS011;39388;50.936;6.848;2023-04-03T13:26:20;1.67;;;1.20;;
53505;SDS011;39388;50.936;6.848;2023-04-03T13:28:59;1.92;;;1.33;;
53505;SDS011;39388;50.936;6.848;2023-04-03T13:31:34;2.00;;;1.45;;
53505;SDS011;39388;50.936;6.848;2023-04-03T13:34:10;2.60;;;1.40;;
53505;SDS011;39388;50.936;6.848;2023-04-03T13:36:54;1.42;;;1.23;;
53505;SDS011;39388;50.936;6.848;2023-04-03T13:39:31;1.50;;;1.40;;
53505;SDS011;39388;50.936;6.848;2023-04-03T13:42:25;1.40;;;1.10;;
53505;SDS011;39388;50.936;6.848;2023-04-03T13:45:21;2.78;;;1.30;;
53505;SDS011;39388;50.936;6.848;2023-04-03T13:48:18;1.25;;;1.15;;
53505;SDS011;39388;50.936;6.848;2023-04-03T13:53:24;2.08;;;1.30;;
53505;SDS011;39388;50.936;6.848;2023-04-03T13:55:57;1.60;;;1.50;;
53505;SDS011;39388;50.936;6.848;2023-04-03T13:58:39;2.42;;;1.30;;
53505;SDS011;39388;50.936;6.848;2023-04-03T14:01:22;2.88;;;1.38;;
53505;SDS011;39388;50.936;6.848;2023-04-03T14:03:57;1.50;;;1.40;;
53505;SDS011;39388;50.936;6.848;2023-04-03T14:06:30;3.00;;;1.52;;
53505;SDS011;39388;50.936;6.848;2023-04-03T14:09:01;1.40;;;1.20;;
53505;SDS011;39388;50.936;6.848;2023-04-03T14:11:32;1.85;;;1.40;;
53505;SDS011;39388;50.936;6.848;2023-04-03T14:14:20;1.05;;;1.05;;
53505;SDS011;39388;50.936;6.848;2023-04-03T14:16:54;1.60;;;1.50;;
53505;SDS011;39388;50.936;6.848;2023-04-03T14:19:27;1.30;;;1.20;;
53505;SDS011;39388;50.936;6.848;2023-04-03T14:22:38;2.03;;;1.48;;
53505;SDS011;39388;50.936;6.848;2023-04-03T14:25:04;11.48;;;1.90;;
53505;SDS011;39388;50.936;6.848;2023-04-03T14:27:37;1.67;;;1.20;;
53505;SDS011;39388;50.936;6.848;2023-04-03T14:30:18;1.67;;;1.50;;
53505;SDS011;39388;50.936;6.848;2023-04-03T14:32:51;1.70;;;1.60;;
53505;SDS011;39388;50.936;6.848;2023-04-03T14:35:22;2.40;;;1.30;;
53505;SDS011;39388;50.936;6.848;2023-04-03T14:37:53;1.75;;;1.60;;
53505;SDS011;39388;50.936;6.848;2023-04-03T14:40:25;3.00;;;1.48;;
53505;SDS011;39388;50.936;6.848;2023-04-03T14:42:57;1.20;;;1.20;;
53505;SDS011;39388;50.936;6.848;2023-04-03T14:45:28;1.85;;;1.38;;
53505;SDS011;39388;50.936;6.848;2023-04-03T14:47:58;1.80;;;1.42;;
53505;SDS011;39388;50.936;6.848;2023-04-03T14:50:29;2.33;;;1.50;;
53505;SDS011;39388;50.936;6.848;2023-04-03T14:52:59;1.98;;;1.42;;
53505;SDS011;39388;50.936;6.848;2023-04-03T14:55:30;1.98;;;1.55;;
53505;SDS011;39388;50.936;6.848;2023-04-03T14:58:00;1.48;;;1.33;;
53505;SDS011;39388;50.936;6.848;2023-04-03T15:00:31;2.55;;;1.42;;
53505;SDS011;39388;50.936;6.848;2023-04-03T15:03:01;2.15;;;1.52;;
53505;SDS011;39388;50.936;6.848;2023-04-03T15:05:32;1.40;;;1.30;;
53505;SDS011;39388;50.936;6.848;2023-04-03T15:08:02;1.35;;;1.25;;
53505;SDS011;39388;50.936;6.848;2023-04-03T15:10:33;1.30;;;1.20;;
53505;SDS011;39388;50.936;6.848;2023-04-03T15:13:04;1.50;;;1.30;;
53505;SDS011;39388;50.936;6.848;2023-04-03T15:15:34;1.98;;;1.35;;
53505;SDS011;39388;50.936;6.848;2023-04-03T15:18:06;1.40;;;1.30;;
53505;SDS011;39388;50.936;6.848;2023-04-03T15:20:40;3.22;;;1.73;;
53505;SDS011;39388;50.936;6.848;2023-04-03T15:23:12;1.70;;;1.35;;
53505;SDS011;39388;50.936;6.848;2023-04-03T15:25:44;2.92;;;1.45;;
53505;SDS011;39388;50.936;6.848;2023-04-03T15:30:56;1.55;;;1.45;;
53505;SDS011;39388;50.936;6.848;2023-04-03T15:33:27;1.40;;;1.27;;
53505;SDS011;39388;50.936;6.848;2023-04-03T15:35:58;1.27;;;1.17;;
53505;SDS011;39388;50.936;6.848;2023-04-03T15:38:28;2.08;;;1.45;;
53505;SDS011;39388;50.936;6.848;2023-04-03T15:40:59;1.67;;;1.52;;
53505;SDS011;39388;50.936;6.848;2023-04-03T15:43:30;2.00;;;1.55;;
53505;SDS011;39388;50.936;6.848;2023-04-03T15:46:01;1.48;;;1.30;;
53505;SDS011;39388;50.936;6.848;2023-04-03T15:48:31;1.65;;;1.50;;
53505;SDS011;39388;50.936;6.848;2023-04-03T15:51:02;2.53;;;1.45;;
53505;SDS011;39388;50.936;6.848;2023-04-03T15:53:32;2.10;;;1.58;;
53505;SDS011;39388;50.936;6.848;2023-04-03T15:56:03;2.65;;;1.60;;
53505;SDS011;39388;50.936;6.848;2023-04-03T15:58:34;1.77;;;1.60;;
53505;SDS011;39388;50.936;6.848;2023-04-03T16:01:05;2.08;;;1.60;;
53505;SDS011;39388;50.936;6.848;2023-04-03T16:03:35;1.40;;;1.30;;
53505;SDS011;39388;50.936;6.848;2023-04-03T16:06:06;2.25;;;1.67;;
53505;SDS011;39388;50.936;6.848;2023-04-03T16:08:36;1.55;;;1.42;;
53505;SDS011;39388;50.936;6.848;2023-04-03T16:11:07;2.47;;;1.58;;
53505;SDS011;39388;50.936;6.848;2023-04-03T16:13:37;1.40;;;1.17;;
53505;SDS011;39388;50.936;6.848;2023-04-03T16:16:08;1.50;;;1.40;;
53505;SDS011;39388;50.936;6.848;2023-04-03T16:18:39;2.35;;;1.40;;
53505;SDS011;39388;50.936;6.848;2023-04-03T16:21:10;1.88;;;1.60;;
53505;SDS011;39388;50.936;6.848;2023-04-03T16:23:40;1.67;;;1.48;;
53505;SDS011;39388;50.936;6.848;2023-04-03T16:26:11;1.55;;;1.25;;
53505;SDS011;39388;50.936;6.848;2023-04-03T16:28:42;2.00;;;1.60;;
53505;SDS011;39388;50.936;6.848;2023-04-03T16:31:13;2.38;;;1.65;;
53505;SDS011;39388;50.936;6.848;2023-04-03T16:33:43;1.65;;;1.00;;
53505;SDS011;39388;50.936;6.848;2023-04-03T16:36:14;1.92;;;1.40;;
53505;SDS011;39388;50.936;6.848;2023-04-03T16:38:44;1.65;;;1.48;;
53505;SDS011;39388;50.936;6.848;2023-04-03T16:41:15;2.05;;;1.40;;
53505;SDS011;39388;50.936;6.848;2023-04-03T16:43:45;1.90;;;1.55;;
53505;SDS011;39388;50.936;6.848;2023-04-03T16:46:15;1.95;;;1.50;;
53505;SDS011;39388;50.936;6.848;2023-04-03T16:48:46;2.05;;;1.55;;
53505;SDS011;39388;50.936;6.848;2023-04-03T16:51:16;4.22;;;1.70;;
53505;SDS011;39388;50.936;6.848;2023-04-03T16:53:47;3.28;;;1.50;;
53505;SDS011;39388;50.936;6.848;2023-04-03T16:56:17;2.63;;;1.40;;
53505;SDS011;39388;50.936;6.848;2023-04-03T16:58:47;2.00;;;1.67;;
53505;SDS011;39388;50.936;6.848;2023-04-03T17:01:18;2.97;;;1.50;;
53505;SDS011;39388;50.936;6.848;2023-04-03T17:03:49;1.30;;;1.20;;
53505;SDS011;39388;50.936;6.848;2023-04-03T17:06:20;2.67;;;1.70;;
53505;SDS011;39388;50.936;6.848;2023-04-03T17:08:53;2.70;;;1.83;;
53505;SDS011;39388;50.936;6.848;2023-04-03T17:11:23;1.65;;;1.45;;
53505;SDS011;39388;50.936;6.848;2023-04-03T17:13:55;1.92;;;1.38;;
53505;SDS011;39388;50.936;6.848;2023-04-03T17:16:26;5.75;;;1.85;;
53505;SDS011;39388;50.936;6.848;2023-04-03T17:18:57;2.10;;;1.45;;
53505;SDS011;39388;50.936;6.848;2023-04-03T17:21:28;3.65;;;1.95;;
53505;SDS011;39388;50.936;6.848;2023-04-03T17:23:59;2.33;;;1.60;;
53505;SDS011;39388;50.936;6.848;2023-04-03T17:26:31;2.17;;;1.63;;
53505;SDS011;39388;50.936;6.848;2023-04-03T17:29:02;2.00;;;1.40;;
53505;SDS011;39388;50.936;6.848;2023-04-03T17:31:33;1.50;;;1.40;;
53505;SDS011;39388;50.936;6.848;2023-04-03T17:34:04;2.15;;;1.70;;
53505;SDS011;39388;50.936;6.848;2023-04-03T17:36:34;1.65;;;1.50;;
53505;SDS011;39388;50.936;6.848;2023-04-03T17:39:05;2.65;;;1.75;;
53505;SDS011;39388;50.936;6.848;2023-04-03T17:41:36;2.28;;;1.67;;
53505;SDS011;39388;50.936;6.848;2023-04-03T17:44:06;1.13;;;1.13;;
53505;SDS011;39388;50.936;6.848;2023-04-03T17:46:37;1.52;;;1.10;;